Results by/Résultats par Info:(613) 673-4909

                                         K-TOWN TRIATHLON

                                     Sunday August 1st, 1999
                              Confederation Park, Kingston, Ontario

                                     Sprint Triathlon Results

 -----FINAL------ ----------------------- ------------ -------------- ----           750m                           32km                        7.2km
                                                       Category            ----------SWIM---------  ----- ----------BIKE--------  ----- ---------RUN----------
   Pos     Time   Name                    City         Plc/Total        #   Cat   Ovr  Time  /100m  Tr 1  Cat Ovr Time    km/hr   Tr 2  Cat  Ovr  Time    km
 ------  -------- ----------------------- ------------ -------------- ---- -----------------------  ----- ----------------------  ----- ----------------------
    1     1:20:51 Mike NEILL              Kingston      1/2   MElite    1  2      7    8:47  1:11    0:45 1      1   45:29 42.2    0:33 1      2   25:18  3:31 
    2     1:24:07 Chris JAMIESON          Bridgenorth   2/2   MElite    6  1      4    8:31  1:09    0:43 2      2   46:40 41.2    0:27 2      8   27:48  3:52 
    3     1:25:25 Darren HENRY            King City     1/12  M20-24  310  3     11    9:13  1:14    0:57 1      3   46:54 41.0    0:51 2      6   27:31  3:50 
    4     1:25:29 Adam CAMPBELL           Kingston      2/12  M20-24  380  4     28   10:45  1:26    1:07 2      4   47:51 40.1    0:44 1      1   25:05  3:29 
    5     1:26:31 Marty RAYMOND           Gloucester    1/24  M35-39   34  1      8    8:47  1:11    1:13 1      6   48:51 39.3    0:35 2      4   27:06  3:46 
    6     1:26:57 Randy GORDON            Oakville      1/28  M25-29  392  1      3    8:26  1:08    1:22 2      8   49:07 39.1    0:43 1      5   27:19  3:48 
    7     1:30:27 Paul TURNER             Orleans       1/19  M40-44  230  2     25   10:36  1:25    0:48 1      9   50:37 37.9    0:49 1      7   27:38  3:51 
    8     1:30:55 Gilles MALBOEUF         Gloucester    1/7   M45-49  231  2     54   11:48  1:35    1:15 1      7   48:56 39.3    0:54 1      9   28:04  3:54 
    9     1:33:49 Rod DIAZ                Kingston      1/7   M19&-   410  1      2    8:21  1:07    1:15 1     28   53:42 35.8    1:13 1     11   29:20  4:05 
   10     1:33:58 George TOLKACHEV        Nepean        1/27  M30-34  185  1     10    9:12  1:14    1:09 3     22   53:15 36.1    0:59 1     12   29:24  4:05 
   11     1:34:02 Ron WEBB                Nepean        2/7   M45-49  316  1     32   10:51  1:27    1:03 2     13   51:54 37.0    0:50 2     13   29:24  4:05 
   12     1:34:19 Jeff WALSH              Belleville    2/28  M25-29  186  3     39   11:05  1:29    1:18 3     11   51:44 37.1    0:46 2     14   29:28  4:06 
   13     1:34:49 Peter SHEARING          Nepean        2/24  M35-39  266  3     41   11:07  1:29    0:53 2     12   51:47 37.1    0:42 4     16   30:22  4:13 
   14     1:36:10 Josie JAKOPIN           Toronto       1/23  W20-24  331  1     16   10:02  1:21    1:12 1     19   52:57 36.3    0:51 1     26   31:10  4:20 
   15     1:36:21 Rachel JOYCE            Kingston      1/26  W25-29  350  3     17   10:07  1:21    1:04 1     30   54:01 35.6    0:44 2     17   30:27  4:14 
   16     1:36:37 Brock DAVIS             Brockville    1/9   W30-34  163  4     34   10:55  1:28    1:34 1     14   52:13 36.8    0:52 1     25   31:04  4:19 
   17     1:37:00 Charles MACLEOD         Kingston      3/12  M20-24   30  5     36   10:56  1:28    1:18 3     10   51:37 37.2    1:04 4     42   32:07  4:28 
   18     1:37:25 Aaron HOAG              Toronto       4/12  M20-24  229  2      6    8:46  1:11    1:08 4     20   53:00 36.2    0:54 6     61   33:38  4:41 
   19     1:37:31 Ariane MARTIN           Kingston      2/26  W25-29  228  8     42   11:07  1:29    0:54 2     31   54:05 35.5    0:59 3     19   30:27  4:14 
   20 CL  1:37:41 Greg REDMAN             Ottawa        3/28  M25-29  726  2     23   10:26  1:24    1:49 5     27   53:38 35.8    1:04 3     20   30:46  4:17 
   21     1:37:50 Caroline CHOUINARD      Courcelette   3/26  W25-29  168  2     15   10:02  1:21    1:01 3     40   55:14 34.8    0:36 4     23   31:00  4:19 
   22     1:37:58 Tim DILLON              Nepean        2/19  M40-44   41  1     22   10:22  1:23    1:51 3     26   53:33 35.9    0:45 2     31   31:29  4:23 
   23     1:38:32 Luc MARINEAU            Gatineau      4/28  M25-29  184  10   106   13:37  1:49    1:30 1      5   48:25 39.7    1:09 9     62   33:52  4:43 
   24     1:38:36 Ralph LINDZON           Toronto       3/19  M40-44  209  5     44   11:13  1:30    1:14 2     24   53:25 36.0    0:59 4     34   31:48  4:25 
   25     1:39:07 Viki RIHA               Kingston      2/23  W20-24  129  3     20   10:16  1:23    0:41 2     45   55:43 34.5    0:33 4     40   31:55  4:26 
   26     1:39:19 Philip ALTENDORFER      Pte.Claire    3/24  M35-39  428  11   109   13:43  1:50    2:00 3     15   52:19 36.7    1:37 3     15   29:41  4:08 
   27     1:39:46 William COOPER          Kingston      4/24  M35-39  243  4     53   11:38  1:33    1:11 4     21   53:09 36.1    1:15 7     48   32:35  4:32 
   28     1:40:28 Jim CLARK               Kingston      2/27  M30-34  370  3     31   10:49  1:27    1:00 8     44   55:39 34.5    1:34 4     30   31:27  4:23 
   29     1:40:40 Lisa TRAHAN             Cornwall      4/26  W25-29  161  1     12    9:23  1:15    1:22 4     41   55:16 34.8    0:48 6     63   33:53  4:43 
   30     1:41:30 Don HEARN               Clinton       3/27  M30-34  202  12   101   13:30  1:48    1:34 1     16   52:37 36.5    1:21 6     46   32:30  4:31 
   31     1:41:37 Miguel BUSSIERE         Kingston      5/28  M25-29   31  20   160   15:32  2:05    1:24 4     18   52:50 36.4    0:48 4     24   31:04  4:19 
   32     1:42:01 Alastair SMITH          King City     2/7   M19&-   104  5     51   11:33  1:33    2:22 2     35   54:35 35.2    1:18 2     45   32:16  4:29 
   33     1:42:10 Scott VOWLES            Kingston      6/28  M25-29  277  7     74   12:42  1:42    1:02 6     37   55:00 34.9    0:57 7     47   32:32  4:32 
   34     1:42:21 Norman BOURGEOIS        Frankford     4/27  M30-34  153  2     26   10:37  1:25    1:27 2     17   52:42 36.4    1:12 11    97   36:24  5:04 
   35     1:42:28 Paul MCINTYRE           Toronto       5/27  M30-34  411  6     57   11:57  1:36    1:00 9     57   56:32 34.0    2:06 3     22   30:55  4:18 
   36     1:42:32 Debbie PARSONS          Waterloo      2/9   W30-34  429  2     13    9:27  1:16    0:55 2     46   55:43 34.5    1:16 4     80   35:13  4:54 
   37     1:43:07 Cathy BODNOFF           Ottawa        1/10  W35-39  367  2     56   11:54  1:36    1:41 1     38   55:05 34.9    1:22 1     53   33:06  4:36 
   38     1:43:36 Jim MURRAY              Gananoque     4/19  M40-44  341  12   130   14:30  1:56    1:41 4     33   54:27 35.3    1:20 3     33   31:39  4:24 
   39     1:43:50 Peter SIMS              Ottawa        1/11  M50-54   60  3    122   14:05  1:53    1:15 2     47   55:44 34.5    0:55 1     38   31:53  4:26 
   40     1:44:16 Gerard HANLEY           Napanee       5/24  M35-39  176  5     61   12:07  1:37    1:20 10    70   57:38 33.3    1:00 6     43   32:12  4:29 
   41     1:44:16 Suzanne GRISE           Toronto       5/26  W25-29  301  11    86   13:10  1:46    1:39 8     85   59:16 32.4    0:54 1     10   29:18  4:05 
   42     1:44:28 Paul SCULLY             Ottawa        6/27  M30-34  366  11    77   12:50  1:43    1:37 10    60   56:37 33.9    1:12 5     44   32:15  4:29 
   43     1:44:35 Marc WILKINSON          Brockville    7/28  M25-29  235  14   125   14:19  1:55    1:30 8     55   56:26 34.0    1:11 5     27   31:11  4:20 
   44     1:44:49 Wendy FITZPATRICK       Ottawa        3/9   W30-34  353  6     67   12:22  1:39    1:19 3     76   58:14 33.0    1:05 2     36   31:50  4:26 
   45     1:44:49 David BEASLEY           Ottawa        1/2   M55-59  344  1     91   13:15  1:46    2:50 1     65   57:07 33.6    1:12 1     18   30:27  4:14 
   46     1:45:00 Tara LOHMANN            Kingston      3/23  W20-24  281  17   134   14:38  1:57    1:52 3     59   56:35 33.9    0:40 2     29   31:17  4:21 
   47     1:45:31 Nils FRENCH             Kingston      5/12  M20-24  218  1      5    8:35  1:09    1:39 10   137 1:03:05 30.4    0:43 3     32   31:30  4:23 
   48     1:45:45 Suzanne DOSTALER        Kingston      1/7   W40-44  244  3    127   14:25  1:56    1:38 1     39   55:09 34.8    1:10 1     57   33:24  4:39 
   49     1:45:45 Andrew HOLYWELL         Kingston      6/12  M20-24  298  9     82   13:03  1:45    1:30 5     42   55:28 34.6    0:39 9     79   35:07  4:53 
   50     1:45:46 Guy ORAM                Kingston      6/24  M35-39  103  19   176   16:00  2:08    3:31 11    71   57:44 33.3    2:05 1      3   26:28  3:41 
   51     1:45:47 Matthew SLADE           Mississauga   3/7   M19&-    69  3     14    9:58  1:20    1:05 3     86   59:17 32.4    0:24 4     78   35:05  4:53 
   52     1:45:48 Michael DIXON           Ottawa        3/7   M45-49  261  6    112   13:47  1:51    2:35 3     49   56:12 34.2    1:16 3     41   32:01  4:27 
   53     1:46:06 Ross MACDONALD          Kanata        7/24  M35-39   97  12   120   13:59  1:52    1:44 5     34   54:33 35.2    0:40 10    81   35:13  4:54 
   54     1:46:12 Isabelle CODA           Ottawa        6/26  W25-29  208  6     27   10:40  1:26    1:32 5     52   56:16 34.1    1:10 14   105   36:36  5:05 
   55     1:46:16 Felix BROWN             Toronto       7/27  M30-34  292  7     63   12:11  1:38    2:13 5     25   53:28 35.9    1:34 12   112   36:52  5:08 
   56     1:46:23 Todd HUGHSON            Toronto       8/27  M30-34  170  9     70   12:33  1:41    1:47 12    73   57:52 33.2    0:50 8     56   33:22  4:39 
   57     1:46:34 Andrea MCGILL           Kingston      7/26  W25-29   76  4     21   10:18  1:23    1:28 10    91   59:40 32.2    1:00 8     66   34:09  4:45 
   58     1:46:48 Rob CAJOLET             Outremont     9/27  M30-34  263  20   185   16:34  2:13    1:38 6     29   53:46 35.7    1:52 7     51   32:59  4:35 
   59     1:46:48 Matt WEISSBACH          Kingston      7/12  M20-24  325  8     64   12:12  1:38    1:40 7     67   57:19 33.5    1:06 7     71   34:33  4:48 
   60     1:47:29 Mathew MCFARLANE        Kingston      8/12  M20-24  144  7     47   11:25  1:32    1:31 9    100 1:00:27 31.8    1:21 5     49   32:47  4:34 
   61     1:47:43 John SALVADOR           Rochester     8/28  M25-29  304  9     87   13:10  1:46    2:00 9     58   56:34 34.0    1:07 12    73   34:54  4:51 
   62     1:47:45 George CWYNAR           Nepean        2/11  M50-54  311  6    163   15:38  2:06    1:54 1     32   54:16 35.4    1:41 3     67   34:17  4:46 
   63     1:48:21 Francisco DIAZ JR       Ottawa        4/7   M19&-   408  2      9    8:58  1:12    1:10 4    117 1:01:39 31.2    1:40 3     75   34:56  4:52 
   64     1:48:34 Neta TAYLOR             Elizabethtow  8/26  W25-29  368  7     37   10:57  1:28    1:31 7     77   58:24 32.9    1:36 12    94   36:08  5:02 
   65     1:48:40 Eric CASTLEDINE         Nepean        8/24  M35-39  214  6     65   12:13  1:38    2:09 9     64   57:00 33.7    0:57 13    96   36:23  5:04 
   66     1:49:03 Peter AUCHINCLOSS       Kingston      9/24  M35-39   57  2     38   11:00  1:28    1:32 8     63   56:52 33.8    0:57 17   139   38:44  5:23 
   67     1:49:05 Brad SMITH              Ottawa       10/27  M30-34   94  14   131   14:31  1:57    1:44 15   103 1:00:51 31.6    1:07 2     21   30:54  4:18 
   68     1:49:27 Lynn FYE                Manlius       4/9   W30-34  315  3     18   10:07  1:21    1:22 4    135 1:02:51 30.6    1:12 3     64   33:58  4:43 
   69     1:49:53 Marcel BRUGGER          Orleans       5/19  M40-44  133  8     60   12:06  1:37    1:39 5     53   56:23 34.1    1:24 8    133   38:23  5:20 
   70     1:49:57 Jennifer GILBERT        Gloucester    9/26  W25-29   95  5     24   10:33  1:25    1:23 9     87   59:22 32.4    0:43 15   127   37:57  5:17 
   71     1:50:07 Monica LABARGE          Toronto       4/23  W20-24  137  2     19   10:15  1:22    1:49 4     90   59:38 32.2    1:08 9    117   37:18  5:11 
   72 CL  1:50:14 Gregory ROE             Collingwood   9/28  M25-29  433  16   135   14:38  1:58    2:07 7     48   55:50 34.4    1:08 17   101   36:32  5:05 
   73     1:50:20 Kalle PUGI              Kingston     10/24  M35-39  313  13   126   14:21  1:55    2:25 16   101 1:00:29 31.8    1:17 5     35   31:50  4:26 
   74     1:50:20 Sylvie CHOUINARD        St Nicholas   5/23  W20-24  413  7     71   12:35  1:41    1:53 9    133 1:02:49 30.6    1:13 3     37   31:52  4:26 
   75 CL  1:50:34 Robert LUKSHIS          Stittsville  11/24  M35-39  285  9     97   13:24  1:48    2:14 13    75   58:13 33.0    1:46 9     77   34:59  4:52 
   76     1:50:36 Nancy VILLEMURE         Maberly       2/10  W35-39   24  5    100   13:29  1:48    1:32 2     74   57:53 33.2    1:07 5    106   36:38  5:06 
   77     1:50:45 Michael TESKE           Alymer       11/27  M30-34  427  15   142   15:01  2:01    3:48 4     23   53:23 36.0    2:30 10    93   36:05  5:01 
   78 CL  1:50:47 Matthew CARLYLE         Maitland     10/28  M25-29  302  18   150   15:11  2:02    2:06 10    66   57:11 33.6    1:00 13    82   35:21  4:55 
   79     1:50:48 Alan CASTEL             Kingston      9/12  M20-24  323  6     43   11:10  1:30    1:44 8     79   58:27 32.9    0:42 10   142   38:47  5:24 
   80     1:50:55 Chris LECONTE           St Catherine 10/12  M20-24  210  10   144   15:06  2:01    2:18 6     56   56:27 34.0    2:12 8     74   34:55  4:51 
   81     1:50:58 Lee-Anne LAVERTY        Kingston     10/26  W25-29  373  22   165   15:40  2:06    1:56 6     62   56:47 33.8    1:39 11    76   34:57  4:52 
   82     1:51:04 Jennifer CORNER         Kingston      6/23  W20-24  200  4     33   10:54  1:28    1:36 5     97 1:00:06 31.9    0:49 10   121   37:41  5:14 
   83     1:51:16 Ross BELL               Brockville    6/19  M40-44   26  4     30   10:48  1:27    1:55 9     96 1:00:01 32.0    1:27 7    116   37:06  5:10 
   84     1:51:17 Mike BROEKHOVEN         Kingston     12/27  M30-34   77  4     50   11:32  1:33    1:42 7     43   55:33 34.6    1:04 21   168   41:28  5:46 
   85 CL  1:51:19 Francisco ESPINOSA      Kingston      4/7   M45-49  282  5     96   13:24  1:48    2:13 5     54   56:25 34.0    2:16 5    114   37:03  5:09 
   86     1:51:23 Paul SANDUSKY           North York   11/28  M25-29  119  5     59   12:05  1:37    2:35 18   129 1:02:21 30.8    1:15 8     54   33:10  4:37 
   87     1:51:37 Christopher DAVIDSON    Kingston     12/28  M25-29  320  6     72   12:38  1:41    1:38 13    92   59:49 32.1    0:46 20   111   36:49  5:07 
   88     1:51:52 Lisa ALLAN              London       11/26  W25-29  361  12   105   13:36  1:49    1:29 14   121 1:01:53 31.0    0:51 7     65   34:05  4:45 
   89     1:51:56 Charles GAUDETTE        Dartmouth    12/24  M35-39  177  10    98   13:26  1:48    1:59 6     36   54:54 35.0    0:54 21   160   40:46  5:40 
   90     1:52:20 Tony BOURNE             Kingston      3/11  M50-54  406  9    207   18:47  2:31    3:48 3     61   56:39 33.9    1:15 2     39   31:53  4:26 
   91 CL  1:52:23 Marc PERRON             Ottawa       13/27  M30-34  412  8     68   12:24  1:40    1:51 14    80   58:30 32.8    2:06 14   118   37:35  5:14 
   92     1:52:25 Kelly ROBERTSON         Dunrobin      3/10  W35-39  307  3     66   12:18  1:39    1:52 6    142 1:03:33 30.2    1:13 2     60   33:32  4:40 
   93 CL  1:52:39 Jeff MUSSON             Trenton      13/24  M35-39  338  7     81   13:02  1:45    2:09 7     51   56:15 34.1    2:05 19   147   39:09  5:27 
   94     1:52:47 Graham BROWN            Kingston      4/11  M50-54  385  1     89   13:14  1:46    2:48 4     83   58:51 32.6    1:29 5     99   36:27  5:04 
   95     1:53:08 Sebastian GILBERT       Kingston     13/28  M25-29  148  22   180   16:11  2:10    4:15 14   102 1:00:47 31.6    0:45 6     28   31:11  4:20 
   96     1:53:15 Esther MACKINLAY        Nepean        4/10  W35-39  306  1     45   11:22  1:31    1:24 4    119 1:01:44 31.1    1:05 6    122   37:42  5:15 
   97     1:53:17 Bob COPELAND            Woodstock    14/27  M30-34  115  5     55   11:49  1:35    2:57 11    68   57:19 33.5    1:40 18   150   39:34  5:30 
   98     1:53:21 Audrey GILES            Kingston      7/23  W20-24  249  11    93   13:17  1:47    2:15 10   139 1:03:16 30.4    1:04 7     59   33:31  4:40 
   99     1:53:38 Chuck DOUGLAS           Kingston     15/27  M30-34   90  13   110   13:43  1:50    1:29 13    78   58:26 32.9    1:24 16   135   38:37  5:22 
  100     1:53:45 Joan TRANMER            Kingston      1/2   W45-49  280  1    124   14:16  1:55    1:31 1     69   57:37 33.3    1:27 2    144   38:55  5:25 
  101     1:53:46 Ed BRAND                Kingston      5/11  M50-54  191  5    155   15:17  2:03    2:28 5     94   59:59 32.0    0:40 4     84   35:24  4:55 
  102     1:53:50 Glenda CLAPHAM          Kingston      5/10  W35-39  189  7    121   14:03  1:53    1:45 3    108 1:01:20 31.3    1:24 3     83   35:21  4:55 
  103     1:54:04 Andrew SMILLIE          Kingston      7/19  M40-44  388  7     58   11:58  1:36    2:10 8     93   59:55 32.0    1:23 9    137   38:39  5:22 
  104     1:54:33 Marg MEINCKE            Sault St. Ma  2/2   W45-49  195  2    157   15:21  2:03    1:50 2     95 1:00:01 32.0    1:32 1     90   35:51  4:59 
  105     1:55:03 Sara GROSS              Kingston      8/23  W20-24  251  15   108   13:43  1:50    2:35 12   149 1:04:30 29.8    1:01 6     55   33:16  4:38 
  106     1:55:03 Janice KWON             Hamilton     12/26  W25-29  234  20   154   15:15  2:02    3:01 15   125 1:02:00 31.0    1:21 5     58   33:27  4:39 
  107     1:55:03 Guy BEAUBIEN            Seeleys Bay  14/24  M35-39   86  22   186   16:38  2:13    2:05 14    88   59:26 32.3    0:57 12    91   35:59  5:00 
  108     1:55:14 Barry WEBB              Huntsville    1/3   M60 +   124  1     52   11:35  1:33    1:54 1    143 1:03:37 30.2    1:22 1    110   36:48  5:07 
  109     1:55:24 Peter WILD              Kingston      8/19  M40-44   80  13   171   15:51  2:07    2:08 7     84   58:59 32.6    1:53 6    104   36:36  5:05 
  110     1:55:28 Tracy ENGLISH           ottawa        9/23  W20-24  404  12   102   13:30  1:48    1:48 7    127 1:02:04 30.9    1:29 8    107   36:39  5:06 
  111     1:55:34 Marc GAGNE              Kingston     16/27  M30-34  342  10    75   12:44  1:42    2:04 17   132 1:02:28 30.7    1:16 13   115   37:04  5:09 
  112     1:56:26 Brian BRETTSCHNEIDER    Oshawa       14/28  M25-29  324  13   119   13:56  1:52    2:23 17   116 1:01:35 31.2    1:54 19   108   36:40  5:06 
  113     1:56:51 Joe BODENDISTEL         Brockville   15/24  M35-39  257  14   128   14:28  1:56    1:48 19   113 1:01:31 31.2    1:13 15   125   37:53  5:16 
  114     1:57:13 Chantal MERCIER         Ottawa       13/26  W25-29  318  17   147   15:07  2:01    1:21 17   150 1:04:35 29.7    1:26 10    72   34:46  4:50 
  115     1:57:28 Alison MCCONNELL        Kingston     14/26  W25-29  343  14   115   13:51  1:51    3:13 18   153 1:05:12 29.5    0:54 9     68   34:20  4:47 
  116     1:57:38 Carmen NIELSON VARTY    Kingston     15/26  W25-29  134  9     73   12:41  1:42    1:45 16   134 1:02:50 30.6    0:47 17   151   39:37  5:31 
  117     1:57:49 Jean POWERS             Kingston      6/10  W35-39  192  6    114   13:51  1:51    1:56 5    122 1:01:55 31.0    0:52 8    148   39:17  5:28 
  118     1:58:11 Randy FOWLER            Bath         16/24  M35-39   88  20   179   16:10  2:10    1:40 15    99 1:00:24 31.8    1:11 18   143   38:47  5:24 
  119 CL  1:58:26 Jeff BLOOM              Toronto      15/28  M25-29  326  8     78   12:55  1:44    2:00 11    82   58:50 32.6    1:21 27   183   43:22  6:02 
  120     1:58:33 Andrew KINGSTON         Kingston      5/7   M19&-   143  7    196   17:34  2:21    2:18 5    126 1:02:03 31.0    0:53 5     88   35:46  4:58 
  121 CL  1:58:34 Shane JENNINGS          Kingston     17/24  M35-39  117  17   169   15:48  2:07    1:55 21   123 1:01:55 31.0    1:07 14   124   37:50  5:16 
  122     1:58:46 Michael ROSS            Kingston     18/24  M35-39  423  21   184   16:34  2:13    1:51 24   163 1:05:54 29.1    1:36 8     50   32:54  4:35 
  123     1:58:50 Eric TOUPIN             Kingston     16/28  M25-29  105  24   190   17:17  2:19    2:01 15   106 1:01:12 31.4    1:47 18   102   36:35  5:05 
  124     1:58:53 Philip PLANTINGA        Hamilton      6/7   M19&-   145  6    116   13:52  1:51    3:17 6    128 1:02:18 30.8    0:43 7    140   38:45  5:23 
  125     1:58:57 Terry CHRISTIE          Etotbicoke   19/24  M35-39  432  16   146   15:06  2:01    2:35 18   107 1:01:16 31.3    1:47 16   130   38:16  5:19 
  126     1:59:02 Sheila SANGERS          Kingston     16/26  W25-29  399  15   137   14:41  1:58    1:17 12   105 1:01:05 31.4    1:42 18   154   40:18  5:36 
  127     1:59:40 Rob DEAN                Kingston     17/28  M25-29  112  21   175   15:57  2:08    2:06 20   141 1:03:33 30.2    1:39 16   100   36:27  5:04 
  128     1:59:47 Todd SMITH              Kingston     18/28  M25-29  165  27   201   17:44  2:22    2:24 19   131 1:02:25 30.8    0:50 15    98   36:25  5:04 
  129     1:59:50 Allison KOPPERT         St Clair Bea 10/23  W20-24  286  18   164   15:39  2:06    1:49 15   179 1:08:12 28.2    1:12 5     52   33:00  4:35 
  130     1:59:59 Dave MAJKUT             Joyceville    7/7   M19&-   416  4     40   11:06  1:29    1:44 7    175 1:07:38 28.4    0:54 6    136   38:39  5:22 
  131     2:00:02 Julie CAJOLET           North York   17/26  W25-29  283  19   153   15:15  2:02    1:36 11    98 1:00:23 31.8    2:08 19   159   40:43  5:40 
  132     2:00:03 Rich CAMERON            Kingston      5/7   M45-49  197  7    143   15:04  2:01    2:42 6    159 1:05:33 29.3    1:07 4     87   35:38  4:57 
  133     2:00:25 Geoff ADAMSON           Kingston     19/28  M25-29  221  4     49   11:28  1:32    1:31 16   112 1:01:29 31.2    1:40 28   192   44:18  6:10 
  134     2:00:31 Bruno BARRETT           Carthage     20/28  M25-29  415  11   117   13:54  1:52    3:26 21   144 1:03:39 30.2    2:33 21   113   37:02  5:09 
  135     2:00:32 Wendy FLECKER           Kingston      7/10  W35-39  328  4     76   12:46  1:43    2:17 7    169 1:06:49 28.7    2:07 4    103   36:35  5:05 
  136     2:00:42 Joan POST               Kingston     11/23  W20-24  321  20   182   16:23  2:11    2:18 8    130 1:02:21 30.8    1:48 11   126   37:54  5:16 
  137     2:00:59 Irvine FRANCIS          Cornwall      6/11  M50-54   58  2     99   13:28  1:48    2:30 7    110 1:01:26 31.3    1:34 9    176   42:04  5:51 
  138     2:01:14 Allison GRIFFITHS       Kingston     18/26  W25-29  219  13   111   13:45  1:50    3:44 13   118 1:01:39 31.2    3:46 16   134   38:23  5:20 
  139     2:01:19 Rick MELANSON           Kingston     17/27  M30-34  223  18   162   15:35  2:05    2:36 18   140 1:03:25 30.3    0:59 17   141   38:46  5:23 
  140 CL  2:01:36 Marty MCFARLANE         Kingston     18/27  M30-34  250  16   151   15:13  2:02    2:13 16   114 1:01:32 31.2    1:38 20   163   41:03  5:42 
  141     2:01:52 Peter KINGSTON          Kingston      9/19  M40-44  142  17   203   17:55  2:24    2:30 11   124 1:01:59 31.0    0:49 10   138   38:41  5:23 
  142     2:02:04 Paul SPIEGELBERG        Kanata       10/19  M40-44   79  14   177   16:03  2:09    2:35 6     81   58:35 32.8    1:10 16   188   43:43  6:05 
  143     2:02:11 Pina PROVENZANO         Kingston     12/23  W20-24   52  22   204   18:01  2:25    2:20 6    115 1:01:33 31.2    2:00 12   131   38:18  5:20 
  144     2:02:20 Suzanne KINSKY          Ithaca       13/23  W20-24  287  5     35   10:55  1:28    2:12 11   148 1:04:09 29.9    1:13 18   190   43:52  6:06 
  145     2:02:22 Bill DUPHNEY            Wolfe Island  7/11  M50-54  378  11   214   19:30  2:36    2:32 6    109 1:01:25 31.3    2:16 6    109   36:41  5:06 
  146     2:02:30 Geoff FLYNN             Kingston      2/3   M60 +    84  2     94   13:19  1:47    2:06 2    145 1:03:58 30.0    1:36 3    169   41:33  5:47 
  147     2:02:31 Don COWIN               Bath         11/19  M40-44   45  6     48   11:26  1:32    3:54 12   146 1:04:04 30.0    1:33 14   170   41:35  5:47 
  148     2:02:36 Francisco DIAZ SR       Ottawa       12/19  M40-44  409  10    95   13:22  1:47    2:00 14   161 1:05:47 29.2    1:51 11   152   39:38  5:31 
  149     2:02:43 Rob HUGHES              Kingston     21/28  M25-29  422  15   133   14:35  1:57    2:09 24   181 1:08:27 28.1    1:29 14    92   36:05  5:01 
  150     2:02:53 Dan MCIVER              Kingston     19/27  M30-34  216  21   188   17:00  2:16    2:12 22   172 1:07:12 28.6    1:04 9     85   35:27  4:56 
  151     2:03:02 Cindy COWIN             Bath          2/7   W40-44   46  5    138   14:54  2:00    1:31 3    157 1:05:22 29.4    1:05 3    153   40:12  5:35 
  152     2:03:07 Scott MCGHEE            Kingston     22/28  M25-29  169  25   193   17:22  2:19    3:23 12    89   59:31 32.3    1:35 24   165   41:18  5:45 
  153 CL  2:03:11 Richard CHRISTIE        Kingston     13/19  M40-44  390  11   113   13:47  1:51    1:58 10   111 1:01:27 31.3    1:43 17   193   44:18  6:10 
  154     2:03:34 Philip SIM              Kanata       20/24  M35-39  351  24   198   17:37  2:21    2:36 20   120 1:01:51 31.1    2:13 20   149   39:21  5:28 
  155     2:03:53 Peter HENSHAW           Kingston     21/24  M35-39  247  23   192   17:21  2:19    4:38 22   138 1:03:07 30.4    3:16 11    86   35:34  4:57 
  156     2:04:00 Vanessa MADEIROS        Kingston     14/23  W20-24  278  6     46   11:24  1:32    2:34 13   162 1:05:48 29.2    1:53 16   180   42:22  5:54 
  157     2:04:41 Daphne CHRISTIE         Kingston      3/7   W40-44  389  6    158   15:22  2:03    1:40 2    136 1:02:51 30.6    1:30 4    182   43:20  6:02 
  158     2:05:14 Susan MACDONALD         Kingston      4/7   W40-44  242  2    103   13:31  1:49    1:47 4    186 1:09:41 27.6    2:37 2    120   37:39  5:14 
  159     2:05:18 Jongey LEE              Kingston     23/28  M25-29  414  19   156   15:20  2:03    2:01 22   147 1:04:08 29.9    1:58 25   174   41:52  5:49 
  160     2:05:24 Tracy CUPIDO            London       15/23  W20-24  291  10    92   13:16  1:47    2:59 14   173 1:07:24 28.5    1:00 14   161   40:46  5:40 
  161     2:05:52 Jessica ROBERTS         Kingston      1/2   W19&-   171  2    152   15:14  2:02    2:21 1    166 1:06:29 28.9    1:13 1    157   40:37  5:39 
  162     2:07:08 Sue MCIVER              Kingston      5/9   W30-34  217  9    191   17:19  2:19    2:09 5    156 1:05:20 29.4    0:57 5    167   41:25  5:46 
  163     2:07:30 Andrew LEUNG            Kingston     24/28  M25-29  110  23   189   17:04  2:17    2:32 23   154 1:05:18 29.4    0:39 26   175   41:58  5:50 
  164     2:07:43 Cara PETRONE            Brockville   19/26  W25-29  319  26   217   20:17  2:43    2:02 19   178 1:08:11 28.2    1:05 13    95   36:11  5:02 
  165     2:07:58 Barouch CHAI            Thornhill     8/11  M50-54  151  8    194   17:24  2:20    2:46 10   183 1:09:05 27.8    1:03 7    123   37:43  5:15 
  166     2:08:31 Dave DUDLEY             Gloucester   22/24  M35-39   73  15   145   15:06  2:01    2:31 17   104 1:01:05 31.4    1:06 23   207   48:46  6:47 
  167     2:08:41 Katie WILLIAMSON        Kingston     16/23  W20-24   85  16   129   14:29  1:56    2:04 16   184 1:09:08 27.8    0:54 15   178   42:08  5:52 
  168     2:08:41 Diane URIE              Kingston      6/9   W30-34  246  5     62   12:10  1:38    1:39 8    188 1:10:18 27.3    2:30 6    177   42:06  5:51 
  169     2:08:52 Scott TYLDESLEY         Kingston     20/27  M30-34  256  22   202   17:54  2:24    4:43 21   170 1:06:52 28.7    1:20 15   129   38:04  5:18 
  170     2:09:03 Krista SCHEPANOVSKY     Ottawa        7/9   W30-34  348  1      1    2:47  0:23    4:09 9    208 1:16:57 25.0    1:35 8    186   43:36  6:04 
  171     2:09:07 Jim ELYOT               Kingston     14/19  M40-44  130  16   199   17:38  2:21    2:37 13   152 1:05:05 29.5    1:58 15   173   41:51  5:49 
  172     2:09:14 Jme MAXWELL             Kingston     11/12  M20-24  394  11   167   15:44  2:06    3:04 11   158 1:05:25 29.4    1:13 11   189   43:50  6:06 
  173     2:09:24 Phil GREGORY            Kanata        9/11  M50-54  227  4    140   14:58  2:00    2:36 8    164 1:06:03 29.1    1:53 10   191   43:56  6:07 
  174     2:09:47 Patty PAULS             Kingston      8/9   W30-34  279  7    132   14:34  1:57    3:49 7    171 1:07:00 28.7    2:12 7    179   42:13  5:52 
  175     2:10:24 Brett GOODWIN           Kingston     25/28  M25-29  347  28   208   18:49  2:31    2:36 25   185 1:09:32 27.6    1:54 22   119   37:35  5:14 
  176     2:10:24 Bert CASS               Aurora        3/3   M60 +   407  3    123   14:14  1:54    3:12 3    189 1:10:33 27.2    1:56 2    155   40:31  5:38 
  177     2:10:24 Bernhard STEGLICH       Kingston      2/2   M55-59  379  2    206   18:44  2:30    2:43 2    155 1:05:19 29.4    2:19 2    166   41:21  5:45 
  178 CL  2:11:03 John COATES             Kingston     10/11  M50-54   59  10   210   18:55  2:32    2:00 9    176 1:07:47 28.3    1:14 8    164   41:09  5:43 
  179 CL  2:11:05 David COLE              Kingston     21/27  M30-34  374  23   211   18:58  2:32    3:19 20   167 1:06:32 28.9    1:43 19   156   40:35  5:39 
  180     2:11:15 Tina CHAMPAGNE          Brockville    9/9   W30-34  158  8    173   15:52  2:07    2:09 6    160 1:05:44 29.2    0:45 9    202   46:46  6:30 
  181     2:11:33 Dale GARRAH             Kingston     15/19  M40-44  196  18   216   19:54  2:40    3:01 15   168 1:06:39 28.8    1:05 13   162   40:55  5:41 
  182     2:11:36 Kristen QUINN           Kingston     20/26  W25-29  362  21   161   15:34  2:05    3:03 20   182 1:08:59 27.8    2:12 20   172   41:49  5:49 
  183     2:11:42 Brian BOESE             Arnprior     16/19  M40-44  180  9     80   12:59  1:44    1:45 16   200 1:14:43 25.7    1:39 12   158   40:38  5:39 
  184 CL  2:12:59 Jacques BABIN           Boucherville 23/24  M35-39  245  18   174   15:54  2:08    2:22 23   151 1:04:43 29.7    2:20 22   205   47:41  6:38 
  185     2:13:03 Michelle BENTON         Kingston     17/23  W20-24   53  8     79   12:57  1:44    3:44 20   204 1:15:46 25.3    1:29 13   146   39:09  5:27 
  186     2:13:59 Walter RUDY             Liverpool     6/7   M45-49  222  3     69   12:30  1:40    3:03 7    213 1:18:50 24.4    1:39 6    128   37:58  5:17 
  187     2:14:11 Kathryn HANDFORD        Toronto       8/10  W35-39   78  9    209   18:50  2:31    2:34 9    197 1:13:06 26.3    0:41 7    145   39:02  5:26 
  188     2:14:19 Susan RADFORD           Perth Road    5/7   W40-44  226  1     83   13:08  1:45    4:22 5    187 1:10:07 27.4    3:11 5    185   43:33  6:03 
  189     2:14:23 Peter WALDRON           Kingston     22/27  M30-34  358  17   159   15:28  2:04    3:23 24   180 1:08:26 28.1    1:36 24   198   45:32  6:20 
  190 CL  2:14:30 Clive CHAPPLE           Kingston     23/27  M30-34  322  27   220   20:39  2:46    3:24 19   165 1:06:24 28.9    2:16 22   171   41:48  5:49 
  191     2:14:36 Jo MOORHEN              Kingston      9/10  W35-39  109  8    195   17:28  2:20    3:13 8    174 1:07:24 28.5    1:47 9    195   44:45  6:13 
  192     2:14:59 Bryon SLADE             Missisauga   17/19  M40-44   70  3     29   10:46  1:27    1:27 19   218 1:25:36 22.4    1:24 5     89   35:48  4:59 
  193     2:15:30 James SIMZER            Brooklin     24/27  M30-34  346  24   212   19:09  2:34    3:36 23   177 1:07:59 28.2    1:20 23   184   43:28  6:03 
  194     2:15:43 Shamir DOSHI            Ottawa       12/12  M20-24  101  12   168   15:45  2:06    2:46 12   192 1:11:20 26.9    0:44 12   196   45:09  6:17 
  195     2:16:09 Nicolas PHAN            Toronto      26/28  M25-29  114  26   200   17:38  2:22    1:44 26   205 1:16:24 25.1    2:05 23   132   38:19  5:20 
  196     2:16:22 Scott KETT              Barrie       27/28  M25-29  387  17   141   14:59  2:00    2:23 27   216 1:23:23 23.0    1:14 10    69   34:25  4:47 
  197     2:16:42 Sheryl DORE             Ottawa        6/7   W40-44  290  4    136   14:41  1:58    4:04 6    194 1:11:50 26.7    2:29 6    187   43:39  6:04 
  198     2:17:36 Hazel SNOWDEN           Kingston     18/23  W20-24  108  14   107   13:37  1:49    1:37 18   196 1:11:58 26.7    1:01 21   209   49:26  6:52 
  199     2:18:05 Melissa RATHIER         Kingston     19/23  W20-24  139  13   104   13:36  1:49    2:18 19   199 1:13:46 26.0    0:48 20   204   47:39  6:37 
  200     2:19:04 Julie THORPE            Kingston     21/26  W25-29  248  10    85   13:08  1:46    3:44 22   191 1:10:54 27.1    2:05 23   208   49:15  6:51 
  201     2:19:09 Tanya ZARN              Kingston     22/26  W25-29  131  24   187   16:57  2:16    2:47 24   198 1:13:29 26.1    1:26 21   194   44:32  6:12 
  202     2:22:13 Erin FRETZ              London       20/23  W20-24  289  23   213   19:17  2:35    2:15 21   206 1:16:32 25.1    1:21 17   181   42:50  5:57 
  203     2:23:49 Mardelle MILLER         Kingston     23/26  W25-29  178  25   205   18:03  2:25    3:12 25   203 1:15:06 25.6    1:40 22   199   45:50  6:22 
  204     2:24:22 Kelly BENN              Kingston     21/23  W20-24  220  19   170   15:49  2:07    3:27 17   193 1:11:31 26.9    2:01 23   212   51:36  7:10 
  205     2:25:23 Susan GIBSON            Kingston      7/7   W40-44  376  7    166   15:43  2:06    4:21 7    201 1:14:59 25.6    4:05 7    201   46:16  6:26 
  206 CL  2:27:15 Michael ROONEY          Hamilton     25/27  M30-34  237  25   215   19:42  2:38    4:34 25   202 1:14:59 25.6    1:52 25   200   46:09  6:25 
  207     2:28:52 Gregory KARAVELIS       Toronto      28/28  M25-29  207  12   118   13:56  1:52    2:45 28   220 1:35:39 20.1    2:05 11    70   34:30  4:48 
  208     2:30:10 Linda MURRAY            Kingston     10/10  W35-39  386  10   219   20:32  2:45    2:55 10   207 1:16:36 25.1    2:43 10   203   47:26  6:36 
  209     2:30:51 Ann EVANS               Kingston     22/23  W20-24  225  9     90   13:15  1:46    2:59 23   219 1:28:08 21.8    1:16 19   197   45:16  6:18 
  210     2:31:08 Karen CALLERY           Kingston     24/26  W25-29  238  23   183   16:28  2:12    5:12 21   190 1:10:45 27.1    2:07 24   216   56:37  7:52 
  211     2:31:28 Pete BERGERON           Cornwall     26/27  M30-34   43  19   178   16:09  2:10    4:07 26   211 1:18:27 24.5    2:00 26   211   50:46  7:04 
  212 CL  2:32:50 David CALDWELL          Ottawa       18/19  M40-44   42  15   181   16:21  2:11    4:26 17   212 1:18:41 24.4    0:59 19   213   52:24  7:17 
  213 CL  2:33:07 Melissa MIROSH          Kingston     25/26  W25-29   40  16   139   14:54  2:00    3:36 23   195 1:11:53 26.7    2:49 25   218   59:58  8:20 
  214     2:34:07 Rachelle SAGUIN         Kingston     23/23  W20-24  267  21   197   17:35  2:21    4:13 22   214 1:20:01 24.0    2:48 22   210   49:32  6:53 
  215     2:34:14 Sara WEISMAN            Toronto       2/2   W19&-   154  1    148   15:10  2:02    3:52 2    209 1:17:16 24.9    4:04 2    215   53:54  7:30 
  216     2:38:53 Dave WILD               Huntsville   11/11  M50-54   44  7    172   15:52  2:07    2:55 11   210 1:17:26 24.8    3:19 11   217   59:24  8:15 
  217     2:41:22 Dennis LARKIN           Verona       19/19  M40-44  375  19   221   22:34  3:01    3:28 18   217 1:23:56 22.9    3:22 18   206   48:04  6:41 
  218     2:42:09 Luis ALVARABO           North York   27/27  M30-34  337  26   218   20:18  2:43    4:14 27   215 1:22:21 23.3    2:17 27   214   53:00  7:22 
  219 DNF         Otto STIMAKOVITS        Waterloo      7/7   M45-49  140  4     88   13:12  1:46    2:33 4     50   56:12 34.2    2:15                        
  220 DNF         Andres PUGI             East Greenbu 24/24  M35-39  264  8     84   13:08  1:45    2:44 12    72   57:51 33.2    1:40                        
  221 DNF         Deirdre O'REILLY        Kingston     26/26  W25-29  132  18   149   15:11  2:02    1:17